Time;durP1;ratioP1;P1;durP2;ratioP2;P2;SDS_P1;SDS_P2;PMS_P1;PMS_P2;Temp;Humidity;BMP_temperature;BMP_pressure;BME280_temperature;BME280_humidity;BME280_pressure;Samples;Min_cycle;Max_cycle;Signal;HPM_P1;HPM_P2
2024/03/28 00:01:44;;;;;;;13.32;6.87;;;;;;;13.09;100.00;98089.58;4953501;58;1138877;-80
2024/03/28 00:06:50;;;;;;;14.67;5.60;;;;;;;13.01;100.00;98083.89;4974617;58;1140630;-77
2024/03/28 00:11:56;;;;;;;13.93;4.83;;;;;;;12.97;100.00;98084.81;4955825;58;1140663;-79
2024/03/28 00:17:03;;;;;;;12.73;6.20;;;;;;;12.96;100.00;98073.06;4956017;58;1140915;-77
2024/03/28 00:22:09;;;;;;;16.33;6.17;;;;;;;12.96;100.00;98073.06;4954971;58;1140897;-77
2024/03/28 00:27:15;;;;;;;11.83;5.27;;;;;;;12.91;100.00;98061.70;5007063;57;1140890;-77
2024/03/28 00:32:20;;;;;;;14.90;6.40;;;;;;;12.80;100.00;98062.23;5055834;56;1140961;-77
2024/03/28 00:37:26;;;;;;;14.43;5.80;;;;;;;12.74;100.00;98053.72;4864658;59;1140673;-78
2024/03/28 00:42:33;;;;;;;11.38;4.85;;;;;;;12.69;100.00;98052.14;5109423;57;1140574;-78
2024/03/28 00:47:39;;;;;;;7.95;4.85;;;;;;;12.66;100.00;98049.89;5072292;56;1140975;-80
2024/03/28 00:52:45;;;;;;;8.78;4.87;;;;;;;12.63;100.00;98039.66;5070542;57;1138462;-78
2024/03/28 00:57:51;;;;;;;12.27;5.40;;;;;;;12.60;100.00;98027.61;5053664;57;1138551;-80
2024/03/28 01:02:57;;;;;;;15.07;6.10;;;;;;;12.50;100.00;98017.03;4788790;59;1140740;-73
2024/03/28 01:08:03;;;;;;;18.03;6.67;;;;;;;12.44;100.00;98001.88;4987399;57;1140544;-78
2024/03/28 01:13:08;;;;;;;12.63;6.33;;;;;;;12.36;100.00;98003.36;4798771;59;1140590;-77
2024/03/28 01:18:14;;;;;;;9.33;6.07;;;;;;;12.30;100.00;97996.48;5089935;57;1140596;-75
2024/03/28 01:23:20;;;;;;;11.70;5.70;;;;;;;12.21;100.00;97992.84;5070142;57;1138801;-78
2024/03/28 01:28:26;;;;;;;11.03;5.07;;;;;;;12.13;100.00;97992.45;5001005;56;1141065;-77
2024/03/28 01:33:32;;;;;;;9.60;5.33;;;;;;;12.10;100.00;97986.71;5002663;58;1140818;-76
2024/03/28 01:38:37;;;;;;;9.17;5.43;;;;;;;12.03;100.00;97979.22;4983462;58;1138923;-77
2024/03/28 01:43:43;;;;;;;10.95;5.72;;;;;;;11.96;100.00;97980.47;4987427;57;1138414;-78
2024/03/28 01:48:51;;;;;;;10.80;5.28;;;;;;;11.90;100.00;97973.30;5007591;58;1140450;-78
2024/03/28 01:53:57;;;;;;;9.87;5.30;;;;;;;11.87;100.00;97980.30;5042146;56;1140705;-75
2024/03/28 01:59:05;;;;;;;9.57;5.70;;;;;;;11.88;100.00;97974.00;5078130;56;1138664;-79
2024/03/28 02:04:10;;;;;;;9.17;5.97;;;;;;;11.86;100.00;97968.88;4887831;59;1138535;-77
2024/03/28 02:09:16;;;;;;;10.37;5.60;;;;;;;11.83;100.00;97964.46;5081439;57;1138726;-77
2024/03/28 02:14:22;;;;;;;12.37;5.47;;;;;;;11.81;100.00;97961.18;4887479;59;1140905;-79
2024/03/28 02:19:27;;;;;;;10.80;6.37;;;;;;;11.79;100.00;97943.33;5060974;57;1140795;-78
2024/03/28 02:24:34;;;;;;;13.67;5.67;;;;;;;11.82;100.00;97953.05;4888126;59;1140616;-80
2024/03/28 02:29:40;;;;;;;16.20;7.22;;;;;;;11.82;100.00;97950.91;5027377;57;1141118;-82
2024/03/28 02:34:45;;;;;;;10.23;5.73;;;;;;;11.79;100.00;97944.66;5027363;57;1140702;-76
2024/03/28 02:39:51;;;;;;;10.75;5.08;;;;;;;11.82;100.00;97941.64;4820527;59;1140755;-82
2024/03/28 02:44:57;;;;;;;8.10;5.07;;;;;;;11.83;100.00;97937.48;4987208;57;1140792;-75
2024/03/28 02:50:03;;;;;;;15.50;5.50;;;;;;;11.84;100.00;97924.55;4987633;57;1138610;-75
2024/03/28 02:55:09;;;;;;;11.20;5.53;;;;;;;11.86;100.00;97933.63;5062293;57;1140858;-80
2024/03/28 03:00:17;;;;;;;12.63;5.20;;;;;;;11.92;100.00;97937.64;5089406;57;1141006;-82
2024/03/28 03:05:23;;;;;;;10.43;5.20;;;;;;;11.98;100.00;97949.32;4864142;59;1140711;-77
2024/03/28 03:10:29;;;;;;;8.97;5.83;;;;;;;12.00;100.00;97932.73;5069757;57;1140523;-74
2024/03/28 03:15:34;;;;;;;11.73;5.67;;;;;;;12.02;100.00;97929.91;4883944;59;1138536;-79
2024/03/28 03:20:49;;;;;;;15.47;5.13;;;;;;;12.00;100.00;97919.49;5070262;57;1141041;-76
2024/03/28 03:25:59;;;;;;;15.43;4.95;;;;;;;11.96;100.00;97912.92;5068395;57;1140833;-74
2024/03/28 03:36:21;;;;;;;16.70;4.87;;;;;;;11.90;100.00;97888.05;4907495;59;1140750;-81
2024/03/28 03:41:26;;;;;;;11.70;5.30;;;;;;;11.87;100.00;97891.58;4915222;59;1140542;-82
2024/03/28 03:46:33;;;;;;;13.57;4.70;;;;;;;11.85;100.00;97871.91;5019014;58;1140687;-79
2024/03/28 03:51:39;;;;;;;14.90;5.07;;;;;;;11.87;100.00;97865.91;4900687;59;1141107;-77
2024/03/28 03:56:44;;;;;;;11.08;5.22;;;;;;;11.86;100.00;97868.75;4888966;57;1140966;-73
2024/03/28 04:01:50;;;;;;;15.95;4.83;;;;;;;11.85;100.00;97851.22;4954527;58;1140725;-76
2024/03/28 04:06:56;;;;;;;11.90;4.87;;;;;;;11.85;100.00;97837.98;4750545;60;1140840;-77
2024/03/28 04:12:02;;;;;;;12.97;4.63;;;;;;;11.85;100.00;97836.15;4934484;58;1140640;-77
2024/03/28 04:17:08;;;;;;;10.32;4.50;;;;;;;11.85;100.00;97836.15;5043302;57;1140601;-79
2024/03/28 04:22:14;;;;;;;8.63;4.00;;;;;;;11.83;100.00;97842.14;5093707;57;1140877;-79
2024/03/28 04:27:19;;;;;;;9.60;4.17;;;;;;;11.84;100.00;97839.80;4829792;59;1138506;-79
2024/03/28 04:32:25;;;;;;;11.73;3.90;;;;;;;11.89;100.00;97837.91;5084316;56;1138751;-79
2024/03/28 04:37:31;;;;;;;8.48;4.67;;;;;;;11.90;100.00;97843.53;4848555;59;1140767;-77
2024/03/28 04:42:36;;;;;;;10.47;4.53;;;;;;;11.90;100.00;97823.66;4907440;58;1138646;-80
2024/03/28 04:47:42;;;;;;;13.93;5.07;;;;;;;11.88;100.00;97823.85;5073721;57;1140687;-82
2024/03/28 04:52:49;;;;;;;8.15;3.95;;;;;;;11.85;100.00;97810.17;5069706;57;1140935;-80
2024/03/28 04:57:54;;;;;;;12.80;4.15;;;;;;;11.85;100.00;97810.99;4829546;58;1138478;-72
2024/03/28 05:03:00;;;;;;;11.57;4.33;;;;;;;11.85;100.00;97807.52;4994022;57;1140960;-86
2024/03/28 05:08:06;;;;;;;19.90;5.20;;;;;;;11.88;100.00;97808.47;4836937;58;1140896;-78
2024/03/28 05:13:12;;;;;;;13.53;4.93;;;;;;;11.87;100.00;97792.27;4872720;58;1141129;-79
2024/03/28 05:18:18;;;;;;;12.10;4.37;;;;;;;11.89;100.00;97802.98;4918298;58;1141027;-80
2024/03/28 05:23:24;;;;;;;22.13;5.57;;;;;;;11.88;100.00;97813.26;4896434;58;1140932;-78
2024/03/28 05:28:30;;;;;;;13.90;4.40;;;;;;;11.89;100.00;97812.25;5027551;56;1141049;-78
2024/03/28 05:33:36;;;;;;;18.37;5.13;;;;;;;11.94;100.00;97817.77;4999217;56;1140607;-81
2024/03/28 05:38:42;;;;;;;11.87;6.30;;;;;;;11.96;100.00;97812.28;5054588;55;1140815;-80
2024/03/28 05:43:48;;;;;;;13.18;4.85;;;;;;;11.95;100.00;97806.66;5093872;55;1141200;-80
2024/03/28 05:48:55;;;;;;;22.05;5.85;;;;;;;11.97;100.00;97808.11;5046978;55;1140765;-79
2024/03/28 05:54:01;;;;;;;24.07;6.40;;;;;;;12.05;100.00;97811.13;5146524;55;1140644;-82
2024/03/28 05:59:06;;;;;;;17.87;5.93;;;;;;;12.12;100.00;97817.27;5124369;55;1140719;-78
2024/03/28 06:04:12;;;;;;;22.63;5.73;;;;;;;12.17;100.00;97806.09;5170340;55;1140857;-80
2024/03/28 06:09:18;;;;;;;17.60;5.97;;;;;;;12.21;100.00;97817.45;5077064;55;1141072;-75
2024/03/28 06:14:23;;;;;;;17.43;5.10;;;;;;;12.26;100.00;97817.66;5113529;55;1140647;-78
2024/03/28 06:19:29;;;;;;;25.33;6.50;;;;;;;12.34;100.00;97815.38;5065339;55;1140972;-78
2024/03/28 06:24:35;;;;;;;21.27;7.37;;;;;;;12.40;100.00;97812.42;5084217;55;1141090;-82
2024/03/28 06:29:49;;;;;;;19.37;8.27;;;;;;;12.46;100.00;97811.65;5183471;55;1140787;-78
2024/03/28 06:34:48;;;;;;;62.83;17.45;;;;;;;12.55;100.00;97809.95;5134764;55;1141068;-78
2024/03/28 06:39:54;;;;;;;27.98;8.50;;;;;;;12.69;100.00;97814.79;4875906;58;1142850;-80
2024/03/28 06:45:00;;;;;;;45.33;9.03;;;;;;;12.81;100.00;97820.37;4933923;58;1140843;-80
2024/03/28 06:50:06;;;;;;;31.80;7.80;;;;;;;12.90;100.00;97817.83;4863144;58;1141138;-82
2024/03/28 06:55:12;;;;;;;49.47;9.10;;;;;;;12.93;100.00;97824.07;4841426;58;1140823;-80
2024/03/28 07:00:17;;;;;;;34.30;9.47;;;;;;;12.92;100.00;97820.59;4796216;59;1141216;-78
2024/03/28 07:05:24;;;;;;;41.60;10.53;;;;;;;12.91;100.00;97820.29;4830248;58;1140982;-78
2024/03/28 07:10:29;;;;;;;65.90;17.93;;;;;;;12.86;100.00;97813.94;4848557;58;1142717;-80
2024/03/28 07:15:35;;;;;;;27.30;10.43;;;;;;;12.85;100.00;97818.92;4898399;57;1143266;-81
2024/03/28 07:20:41;;;;;;;44.87;11.87;;;;;;;12.83;100.00;97803.20;4884994;58;1142880;-80
2024/03/28 07:25:47;;;;;;;33.88;9.73;;;;;;;12.82;100.00;97800.78;4830042;58;1143005;-80
2024/03/28 07:30:52;;;;;;;45.80;9.77;;;;;;;12.78;100.00;97800.86;4816822;58;1140647;-82
2024/03/28 07:35:58;;;;;;;33.70;10.60;;;;;;;12.81;100.00;97794.66;4896244;58;1140877;-84
2024/03/28 07:41:04;;;;;;;46.00;12.73;;;;;;;12.88;100.00;97797.31;4759703;59;1142875;-84
2024/03/28 07:46:10;;;;;;;54.83;13.63;;;;;;;12.90;100.00;97794.78;4932858;57;1142719;-80
2024/03/28 07:51:16;;;;;;;44.77;12.53;;;;;;;12.94;100.00;97796.02;4979346;57;1142630;-77
2024/03/28 07:56:22;;;;;;;30.67;11.97;;;;;;;13.02;100.00;97792.34;5021444;57;1143073;-80
2024/03/28 08:01:27;;;;;;;36.23;8.30;;;;;;;13.15;100.00;97795.05;4985875;57;1143305;-84
2024/03/28 08:06:33;;;;;;;182.00;75.17;;;;;;;13.27;100.00;97797.95;4978649;57;1140795;-84
2024/03/28 08:11:42;;;;;;;49.33;23.33;;;;;;;13.43;100.00;97792.77;4971648;57;1145071;-84
2024/03/28 08:16:46;;;;;;;33.73;7.27;;;;;;;13.73;100.00;97788.67;4932785;57;1142783;-83
2024/03/28 08:21:52;;;;;;;32.00;6.83;;;;;;;14.26;100.00;97782.73;4890720;57;1140881;-84
2024/03/28 08:26:58;;;;;;;34.97;8.90;;;;;;;14.70;100.00;97788.63;4900590;57;1140473;-84
2024/03/28 08:32:04;;;;;;;26.27;8.57;;;;;;;14.93;100.00;97782.80;4917212;58;1140821;-82
2024/03/28 08:37:09;;;;;;;36.83;7.37;;;;;;;14.90;100.00;97778.41;4760165;59;1140733;-83
2024/03/28 08:42:15;;;;;;;32.70;9.50;;;;;;;14.95;100.00;97784.73;4994713;57;1140750;-84
2024/03/28 08:47:23;;;;;;;38.27;8.83;;;;;;;15.04;100.00;97779.45;5024031;57;1140942;-84
2024/03/28 08:52:29;;;;;;;39.85;8.80;;;;;;;15.06;100.00;97778.72;5020267;56;1140931;-84
2024/03/28 08:57:34;;;;;;;44.33;10.67;;;;;;;15.07;100.00;97776.88;5026442;56;1140725;-83
2024/03/28 09:02:46;;;;;;;49.80;16.87;;;;;;;15.08;100.00;97785.16;4977930;56;1142895;-83
2024/03/28 09:07:54;;;;;;;33.73;8.60;;;;;;;15.08;100.00;97794.48;4901073;58;1143029;-84
2024/03/28 09:12:59;;;;;;;49.10;11.67;;;;;;;15.08;100.00;97801.95;5040276;56;1140584;-82
2024/03/28 09:18:05;;;;;;;59.90;16.53;;;;;;;15.08;100.00;97801.95;5036091;56;1142958;-81
2024/03/28 09:23:12;;;;;;;28.90;7.97;;;;;;;15.05;100.00;97794.91;5072629;56;1142895;-80
2024/03/28 09:28:18;;;;;;;37.20;9.87;;;;;;;15.08;100.00;97800.62;5075452;56;1140641;-81
2024/03/28 09:33:24;;;;;;;41.30;7.70;;;;;;;15.14;100.00;97813.05;5031799;56;1140735;-83
2024/03/28 09:38:30;;;;;;;46.43;14.57;;;;;;;15.06;100.00;97806.67;5041396;56;1141145;-82
2024/03/28 09:43:39;;;;;;;58.60;15.77;;;;;;;15.06;100.00;97806.67;5018829;56;1144344;-82
2024/03/28 09:48:44;;;;;;;41.27;9.70;;;;;;;15.00;100.00;97808.84;5081615;56;1142735;-82
2024/03/28 09:53:53;;;;;;;34.85;8.83;;;;;;;14.97;100.00;97817.79;5127055;55;1140947;-82
2024/03/28 09:58:59;;;;;;;19.32;7.80;;;;;;;14.88;100.00;97857.63;5019277;57;1140992;-83
2024/03/28 10:04:17;;;;;;;16.63;9.87;;;;;;;14.27;100.00;97882.73;4860273;58;1140796;-82
2024/03/28 10:09:23;;;;;;;22.70;11.50;;;;;;;13.78;100.00;97881.01;4854560;57;1141103;-83
2024/03/28 10:14:33;;;;;;;22.80;15.67;;;;;;;13.35;100.00;97901.27;5041529;56;1143081;-82
2024/03/28 10:19:39;;;;;;;44.13;22.27;;;;;;;13.00;100.00;97897.85;4999957;56;1142723;-82
2024/03/28 10:24:50;;;;;;;39.97;21.03;;;;;;;12.70;100.00;97913.22;5010457;56;1142795;-82
2024/03/28 10:29:57;;;;;;;52.73;25.88;;;;;;;12.50;100.00;97917.62;5060517;56;1142676;-81
2024/03/28 10:35:04;;;;;;;54.77;24.13;;;;;;;12.39;100.00;97921.60;4928646;56;1142682;-82
2024/03/28 10:40:10;;;;;;;30.23;17.17;;;;;;;12.32;100.00;97926.05;5001325;56;1142903;-81
2024/03/28 10:45:16;;;;;;;22.52;13.43;;;;;;;12.20;100.00;97926.28;4996614;56;1143142;-83
2024/03/28 10:50:28;;;;;;;27.00;12.47;;;;;;;12.18;100.00;97942.37;5020894;56;1142798;-82
2024/03/28 10:55:38;;;;;;;38.97;16.73;;;;;;;12.14;100.00;97950.88;4929904;57;1142672;-82
2024/03/28 11:00:47;;;;;;;17.53;9.80;;;;;;;12.09;100.00;97958.58;4997186;56;1142840;-81
2024/03/28 11:05:55;;;;;;;45.20;21.45;;;;;;;11.92;100.00;97959.34;5029644;56;1140814;-83
2024/03/28 11:11:06;;;;;;;18.95;7.20;;;;;;;11.81;100.00;97991.13;5009050;57;1142751;-82
2024/03/28 11:16:13;;;;;;;21.10;8.37;;;;;;;11.68;100.00;98003.38;4957539;56;1140866;-81
2024/03/28 11:21:29;;;;;;;14.00;5.60;;;;;;;11.52;100.00;98002.60;4997147;57;1140708;-81
2024/03/28 11:26:35;;;;;;;22.93;8.93;;;;;;;11.34;100.00;98022.53;4854254;58;1140584;-81
2024/03/28 11:31:41;;;;;;;17.63;9.00;;;;;;;11.26;100.00;98054.72;4882567;57;1140543;-81
2024/03/28 11:37:31;;;;;;;21.87;8.27;;;;;;;11.08;100.00;98046.82;4939659;57;1141153;-81
2024/03/28 11:42:32;;;;;;;18.63;7.23;;;;;;;10.93;100.00;98061.36;4452385;60;1140808;-81
2024/03/28 11:47:38;;;;;;;21.10;6.83;;;;;;;10.72;100.00;98068.66;4860508;59;1140796;-82
2024/03/28 11:52:44;;;;;;;14.17;5.40;;;;;;;10.61;100.00;98081.00;5054269;57;1141029;-81
2024/03/28 11:57:50;;;;;;;5.67;3.50;;;;;;;10.60;100.00;98084.64;5057594;57;1140871;-82
2024/03/28 12:02:59;;;;;;;8.23;4.47;;;;;;;10.62;100.00;98100.33;5037141;57;1138682;-81
2024/03/28 12:08:07;;;;;;;17.37;6.20;;;;;;;10.63;100.00;98104.11;4975879;57;1138586;-81
2024/03/28 12:13:13;;;;;;;13.18;6.25;;;;;;;10.65;100.00;98112.69;4975308;57;1140892;-81
2024/03/28 12:18:20;;;;;;;20.83;7.07;;;;;;;10.57;100.00;98112.24;4994898;57;1140991;-81
2024/03/28 12:23:26;;;;;;;15.13;7.17;;;;;;;10.51;100.00;98130.15;4975359;57;1140588;-82
2024/03/28 12:28:32;;;;;;;4.90;3.50;;;;;;;10.51;100.00;98130.15;4975574;57;1140911;-82
2024/03/28 12:33:38;;;;;;;27.03;7.63;;;;;;;10.50;100.00;98121.89;4994823;57;1138596;-81
2024/03/28 12:44:03;;;;;;;26.03;8.53;;;;;;;10.48;100.00;98134.46;4738314;60;1141117;-81
2024/03/28 12:49:09;;;;;;;6.58;4.40;;;;;;;10.48;100.00;98126.53;4728053;60;1140829;-81
2024/03/28 12:54:15;;;;;;;11.48;5.78;;;;;;;10.72;100.00;98140.54;4668762;61;1138913;-79
2024/03/28 12:59:21;;;;;;;22.97;7.93;;;;;;;10.94;100.00;98134.41;4637543;61;1140622;-82
2024/03/28 13:04:27;;;;;;;7.27;5.20;;;;;;;11.03;100.00;98155.80;4637637;61;1140815;-82
2024/03/28 13:09:33;;;;;;;8.30;6.17;;;;;;;11.00;100.00;98197.68;4599061;62;1138845;-82
2024/03/28 13:14:38;;;;;;;7.57;5.70;;;;;;;10.86;100.00;98203.22;4575103;62;1138519;-82
2024/03/28 13:19:47;;;;;;;6.77;4.80;;;;;;;10.81;100.00;98203.77;4633324;62;1138465;-81
2024/03/28 13:24:53;;;;;;;6.90;5.55;;;;;;;10.87;100.00;98223.38;4682792;61;1138959;-81
2024/03/28 13:29:59;;;;;;;9.45;5.30;;;;;;;10.93;100.00;98227.97;4664746;60;1138952;-80
2024/03/28 13:35:05;;;;;;;6.67;4.53;;;;;;;11.11;100.00;98224.52;4565029;62;1138863;-82
2024/03/28 13:40:11;;;;;;;5.10;4.60;;;;;;;11.11;100.00;98224.52;4682106;57;1138724;-81
2024/03/28 13:45:17;;;;;;;5.97;4.43;;;;;;;11.18;100.00;98244.45;4967538;57;1138832;-82
2024/03/28 13:50:23;;;;;;;5.17;4.33;;;;;;;11.24;100.00;98259.12;4980051;57;1138831;-81
2024/03/28 13:55:29;;;;;;;5.73;4.30;;;;;;;11.31;100.00;98263.19;4825084;58;1138655;-82
2024/03/28 14:00:34;;;;;;;5.63;5.13;;;;;;;11.38;100.00;98285.81;4995282;57;1138509;-82
2024/03/28 14:05:40;;;;;;;4.20;3.80;;;;;;;11.36;100.00;98287.81;4970484;57;1138863;-82
2024/03/28 14:10:46;;;;;;;4.83;4.07;;;;;;;11.27;100.00;98301.13;4981430;57;1138839;-83
2024/03/28 14:16:02;;;;;;;;;;;;;;;;;;;;;
2024/03/28 14:38:46;;;;;;;4.37;3.83;;;;;;;11.72;100.00;98312.64;4271996;66;1140550;-82
2024/03/28 14:44:08;;;;;;;5.50;3.20;;;;;;;11.87;100.00;98298.95;5276121;54;46815;-80
2024/03/28 14:49:14;;;;;;;5.73;2.67;;;;;;;12.19;100.00;98291.65;4992682;56;1134728;-80
2024/03/28 14:54:20;;;;;;;1.97;1.77;;;;;;;12.36;100.00;98297.58;4925464;57;1138838;-81
2024/03/28 14:59:27;;;;;;;1.17;1.10;;;;;;;12.43;100.00;98286.54;4929604;58;1138479;-79
2024/03/28 15:04:33;;;;;;;2.83;1.50;;;;;;;12.55;100.00;98289.03;4941509;58;1138456;-80
2024/03/28 15:09:38;;;;;;;1.27;1.00;;;;;;;12.71;100.00;98286.16;4976259;56;1138531;-80
2024/03/28 15:14:44;;;;;;;1.40;1.30;;;;;;;12.99;100.00;98286.25;5022289;56;1138629;-80
2024/03/28 15:19:52;;;;;;;2.60;1.30;;;;;;;13.18;100.00;98299.44;5053457;56;1138768;-80
2024/03/28 15:24:58;;;;;;;1.85;1.22;;;;;;;13.29;100.00;98298.95;5100223;55;1138840;-80
2024/03/28 15:30:04;;;;;;;5.83;3.33;;;;;;;13.34;100.00;98296.52;5106139;55;1138734;-80
2024/03/28 15:35:10;;;;;;;6.43;1.90;;;;;;;13.34;100.00;98296.52;5112959;56;1138563;-79
2024/03/28 15:40:20;;;;;;;1.20;1.10;;;;;;;13.44;100.00;98316.13;5101322;56;1139203;-80
2024/03/28 15:45:26;;;;;;;1.63;1.43;;;;;;;13.45;100.00;98337.66;5084720;56;1138504;-80
2024/03/28 15:50:35;;;;;;;1.77;1.10;;;;;;;13.37;100.00;98351.91;5098474;56;1138836;-82
2024/03/28 15:55:44;;;;;;;12.27;3.77;;;;;;;13.33;100.00;98363.40;5034138;57;1138803;-81
2024/03/28 16:00:50;;;;;;;8.75;4.65;;;;;;;13.42;100.00;98369.42;4938928;56;1146005;-81
2024/03/28 16:05:56;;;;;;;3.92;3.55;;;;;;;13.52;100.00;98380.55;4987843;56;1138446;-81
2024/03/28 16:11:02;;;;;;;2.50;2.08;;;;;;;13.61;100.00;98387.36;4973510;57;1138964;-82
2024/03/28 16:16:08;;;;;;;1.73;1.20;;;;;;;13.60;100.00;98396.84;4959939;57;1138969;-81
2024/03/28 16:21:14;;;;;;;3.47;2.00;;;;;;;13.60;100.00;98387.55;4963850;57;1138880;-82
2024/03/28 16:26:20;;;;;;;5.37;2.97;;;;;;;13.49;100.00;98396.03;4949584;57;1138651;-82
2024/03/28 16:31:26;;;;;;;5.23;3.07;;;;;;;13.44;100.00;98400.59;4880922;58;1138510;-82
2024/03/28 16:36:36;;;;;;;7.97;4.47;;;;;;;13.35;100.00;98393.24;5002742;57;1138628;-82
2024/03/28 16:41:42;;;;;;;3.70;3.20;;;;;;;13.33;100.00;98395.77;4922890;58;1139021;-83
2024/03/28 16:46:48;;;;;;;11.80;5.13;;;;;;;13.32;100.00;98380.84;5111893;56;1138911;-81
2024/03/28 16:51:57;;;;;;;7.27;4.70;;;;;;;13.29;100.00;98391.86;5052241;56;1141137;-82
2024/03/28 16:57:03;;;;;;;5.85;4.00;;;;;;;13.20;100.00;98395.13;5075309;56;1139025;-81
2024/03/28 17:02:08;;;;;;;10.45;6.67;;;;;;;13.11;100.00;98392.75;5098162;55;1139363;-80
2024/03/28 17:07:14;;;;;;;31.27;24.17;;;;;;;13.04;100.00;98400.12;5062442;56;1140782;-81
2024/03/28 17:12:20;;;;;;;11.80;5.90;;;;;;;12.97;100.00;98398.41;5116446;56;1142867;-81
2024/03/28 17:17:27;;;;;;;10.70;6.67;;;;;;;12.96;100.00;98406.88;5112750;55;1140868;-82
2024/03/28 17:22:33;;;;;;;38.78;20.23;;;;;;;12.92;100.00;98412.22;4997643;56;1140688;-81
2024/03/28 17:27:39;;;;;;;10.30;4.90;;;;;;;12.83;100.00;98417.83;5014771;56;1143095;-82
2024/03/28 17:32:45;;;;;;;12.93;7.23;;;;;;;12.77;100.00;98423.36;5080277;56;1141022;-81
2024/03/28 17:37:53;;;;;;;31.93;15.73;;;;;;;12.76;100.00;98416.91;5043188;55;1140897;-82
2024/03/28 17:42:59;;;;;;;104.47;58.52;;;;;;;12.73;100.00;98430.02;5074321;56;1142711;-82
2024/03/28 17:48:05;;;;;;;100.47;57.30;;;;;;;12.73;100.00;98419.91;5125637;55;1144937;-82
2024/03/28 17:53:11;;;;;;;17.00;10.48;;;;;;;12.66;100.00;98419.34;5130457;55;1145485;-82
2024/03/28 17:58:17;;;;;;;30.27;17.13;;;;;;;12.60;100.00;98421.89;5151310;56;1142858;-83
2024/03/28 18:03:23;;;;;;;38.10;24.17;;;;;;;12.54;100.00;98410.68;5129360;56;1142626;-81
2024/03/28 18:08:29;;;;;;;19.10;9.73;;;;;;;12.48;100.00;98424.18;5127149;55;1143032;-81
2024/03/28 18:13:35;;;;;;;25.13;12.80;;;;;;;12.39;100.00;98450.94;5152320;55;1140586;-82
2024/03/28 18:18:41;;;;;;;30.77;16.60;;;;;;;12.24;100.00;98453.56;5131545;56;1142603;-82
2024/03/28 18:23:47;;;;;;;26.40;14.83;;;;;;;12.17;100.00;98468.05;5131998;56;1142929;-82
2024/03/28 18:28:53;;;;;;;21.60;9.98;;;;;;;12.15;100.00;98485.13;5139502;55;1152134;-82
2024/03/28 18:33:59;;;;;;;24.43;7.97;;;;;;;12.07;100.00;98490.52;5132644;55;1147676;-82
2024/03/28 18:39:07;;;;;;;14.55;5.58;;;;;;;12.21;100.00;98513.08;5034173;57;1140814;-81
2024/03/28 18:44:12;;;;;;;10.13;3.22;;;;;;;12.32;100.00;98515.30;5132083;55;1140847;-82
2024/03/28 18:49:18;;;;;;;3.13;1.83;;;;;;;12.39;100.00;98514.56;5131719;55;1140567;-82
2024/03/28 18:54:24;;;;;;;11.10;2.30;;;;;;;12.41;100.00;98502.78;5104118;55;1138768;-82
2024/03/28 18:59:30;;;;;;;5.10;1.93;;;;;;;12.41;100.00;98523.16;5126578;55;1140513;-81
2024/03/28 19:04:36;;;;;;;3.00;1.47;;;;;;;12.37;100.00;98523.22;5151427;55;1138520;-82
2024/03/28 19:09:42;;;;;;;7.73;1.77;;;;;;;12.29;99.67;98530.73;5130000;55;1138561;-82
2024/03/28 19:14:51;;;;;;;5.23;1.33;;;;;;;12.23;100.00;98535.40;5131865;54;1136805;-81
2024/03/28 19:19:56;;;;;;;4.53;2.73;;;;;;;12.17;100.00;98530.83;5152536;55;1138604;-82
2024/03/28 19:25:02;;;;;;;22.30;8.67;;;;;;;12.11;100.00;98537.66;5131807;54;1139446;-81
2024/03/28 19:30:09;;;;;;;9.60;2.70;;;;;;;12.08;100.00;98561.84;5122912;54;1140728;-82
2024/03/28 19:35:15;;;;;;;14.10;3.47;;;;;;;12.01;100.00;98570.19;5116480;55;1138872;-81
2024/03/28 19:40:28;;;;;;;6.23;1.43;;;;;;;11.98;100.00;98591.23;5058929;56;1140783;-81
2024/03/28 19:45:35;;;;;;;1.98;1.67;;;;;;;11.90;100.00;98596.59;5043865;56;1138682;-81
2024/03/28 19:50:41;;;;;;;1.23;1.00;;;;;;;11.83;100.00;98596.95;5126637;55;1138717;-81
2024/03/28 19:55:47;;;;;;;2.80;1.73;;;;;;;11.75;100.00;98610.22;5085334;56;1138540;-81
2024/03/28 20:00:53;;;;;;;4.47;1.23;;;;;;;11.68;100.00;98621.66;5047408;57;1138537;-81
2024/03/28 20:05:59;;;;;;;6.00;1.52;;;;;;;11.58;100.00;98633.30;5124992;56;1138947;-82
2024/03/28 20:11:06;;;;;;;8.76;3.50;;;;;;;11.52;100.00;98654.31;5127720;56;1138752;-81
2024/03/28 20:16:12;;;;;;;3.17;2.10;;;;;;;11.34;100.00;98639.14;5144082;56;1138634;-82
2024/03/28 20:21:18;;;;;;;5.30;1.13;;;;;;;11.34;100.00;98664.28;5051624;57;1138765;-82
2024/03/28 20:26:24;;;;;;;1.30;1.20;;;;;;;11.23;100.00;98694.58;5116065;56;1138638;-82
2024/03/28 20:31:43;;;;;;;1.83;1.17;;;;;;;11.14;100.00;98699.56;5145290;55;1138689;-81
2024/03/28 20:36:50;;;;;;;19.07;5.70;;;;;;;11.09;100.00;98678.06;5105538;55;1138779;-81
2024/03/28 20:41:56;;;;;;;6.20;2.10;;;;;;;11.01;100.00;98694.76;5055329;56;1140628;-81
2024/03/28 20:47:20;;;;;;;1.17;0.90;;;;;;;10.93;100.00;98700.06;5064532;56;1138316;-81
2024/03/28 20:52:26;;;;;;;4.35;2.00;;;;;;;10.85;100.00;98702.69;5065432;55;1138777;-82
2024/03/28 20:57:32;;;;;;;5.20;1.97;;;;;;;10.79;100.00;98700.72;5150000;55;1138837;-81
2024/03/28 21:02:38;;;;;;;2.67;1.30;;;;;;;10.70;100.00;98715.73;5204306;55;1138747;-83
2024/03/28 21:13:07;;;;;;;1.87;1.67;;;;;;;10.58;100.00;98715.23;5184904;55;1138619;-83
2024/03/28 21:18:13;;;;;;;1.67;1.37;;;;;;;10.54;100.00;98718.39;5185154;56;1138576;-83
2024/03/28 21:23:19;;;;;;;4.43;1.80;;;;;;;10.48;100.00;98717.21;5203393;56;1138677;-82
2024/03/28 21:28:25;;;;;;;2.97;1.60;;;;;;;10.44;100.00;98719.84;5184515;56;1139044;-83
2024/03/28 21:33:30;;;;;;;2.10;1.10;;;;;;;10.43;100.00;98738.50;5183813;56;1138843;-83
2024/03/28 21:38:38;;;;;;;0.83;0.73;;;;;;;10.41;100.00;98745.75;5112939;56;1138778;-83
2024/03/28 21:43:44;;;;;;;2.67;1.57;;;;;;;10.38;100.00;98742.14;4986522;57;1138525;-83
2024/03/28 21:48:50;;;;;;;3.77;1.83;;;;;;;10.37;100.00;98752.38;4963325;57;1138795;-83
2024/03/28 21:53:57;;;;;;;22.60;8.73;;;;;;;10.33;100.00;98754.99;5086577;56;1138873;-83
2024/03/28 21:59:02;;;;;;;4.87;2.20;;;;;;;10.26;100.00;98762.72;5105214;55;1141188;-83
2024/03/28 22:04:08;;;;;;;4.10;2.13;;;;;;;10.20;100.00;98774.77;5124137;55;1138902;-83
2024/03/28 22:09:14;;;;;;;3.83;2.37;;;;;;;10.16;100.00;98786.61;5136585;55;1138660;-83
2024/03/28 22:14:19;;;;;;;5.77;2.20;;;;;;;10.12;100.00;98786.58;5162267;55;1138646;-83
2024/03/28 22:19:28;;;;;;;2.90;1.70;;;;;;;10.07;100.00;98803.41;5120051;55;1138880;-83
2024/03/28 22:24:34;;;;;;;4.07;1.83;;;;;;;10.01;100.00;98813.77;5097617;56;1139215;-83
2024/03/28 22:29:40;;;;;;;4.03;1.63;;;;;;;9.89;100.00;98818.50;5118062;56;1138399;-83
2024/03/28 22:34:49;;;;;;;3.70;2.23;;;;;;;9.80;100.00;98820.23;5098460;56;1136522;-83
2024/03/28 22:39:53;;;;;;;4.37;2.17;;;;;;;9.70;100.00;98817.38;5069395;56;1136601;-83
2024/03/28 22:44:59;;;;;;;2.97;1.90;;;;;;;9.62;100.00;98836.64;5076942;56;1136472;-83
2024/03/28 22:50:05;;;;;;;529.40;160.72;;;;;;;9.56;100.00;98841.69;5056266;56;1136639;-83
2024/03/28 22:55:11;;;;;;;251.20;49.37;;;;;;;9.48;100.00;98845.08;5095471;56;1144675;-83
2024/03/28 23:00:17;;;;;;;101.47;14.87;;;;;;;9.43;100.00;98864.52;5101522;55;1143009;-83
2024/03/28 23:05:24;;;;;;;47.03;8.43;;;;;;;9.41;100.00;98867.80;5077197;56;1142872;-82
2024/03/28 23:10:29;;;;;;;7.23;2.90;;;;;;;9.31;100.00;98877.61;5057638;56;1139069;-82
2024/03/28 23:15:35;;;;;;;33.13;6.80;;;;;;;9.29;100.00;98887.48;5058048;56;1136438;-82
2024/03/28 23:20:41;;;;;;;18.23;3.50;;;;;;;9.27;100.00;98895.55;5118912;56;1138897;-82
2024/03/28 23:25:47;;;;;;;5.90;2.40;;;;;;;9.26;100.00;98916.80;5133498;56;1138904;-82
2024/03/28 23:30:53;;;;;;;10.53;3.00;;;;;;;9.21;100.00;98921.19;5134433;56;1134424;-82
2024/03/28 23:35:58;;;;;;;7.70;3.20;;;;;;;9.24;100.00;98937.21;5153813;56;1148287;-82